Terminal Aerodrome Forecast
Issued by NWS Cleveland, OH

Home | Current Version | Previous Version | Text Only | Print | Product List | Glossary Off
Versions: 1 2 3 4 5 6 7 8 9 10 11 12 13 14 15 16 17 18 19

613
FTUS41 KCLE 162327
TAFYNG
TAF
KYNG 162327Z 1700/1724 34008KT P6SM BKN025
     FM170500 VRB02KT 6SM BR SCT008 BKN015
      TEMPO 1709/1713 3SM BR
     FM171500 16007KT P6SM BKN022
     FM172300 19008KT P6SM VCSH SCT060 OVC100=

USA.gov is the U.S. government's official web portal to all federal, state and local government web resources and services.